Time;durP1;ratioP1;P1;durP2;ratioP2;P2;SDS_P1;SDS_P2;PMS_P1;PMS_P2;Temp;Humidity;BMP_temperature;BMP_pressure;BME280_temperature;BME280_humidity;BME280_pressure;Samples;Min_cycle;Max_cycle;Signal;HPM_P1;HPM_P2
2024/03/20 00:03:45;;;;;;;4.18;1.83;;;;;;;7.14;62.67;100294.06;10397916;28;20071;-80
2024/03/20 00:08:46;;;;;;;3.53;2.13;;;;;;;7.05;62.79;100289.22;10412062;28;20052;-80
2024/03/20 00:13:47;;;;;;;2.97;1.52;;;;;;;6.98;62.87;100288.59;10411460;28;20707;-80
2024/03/20 00:18:48;;;;;;;7.70;2.38;;;;;;;6.94;62.79;100286.16;10412764;28;20083;-81
2024/03/20 00:23:49;;;;;;;2.95;1.85;;;;;;;6.84;63.16;100295.22;10411325;28;20536;-80
2024/03/20 00:28:50;;;;;;;3.78;1.65;;;;;;;6.82;63.08;100297.03;10418767;28;20103;-80
2024/03/20 00:33:51;;;;;;;4.85;1.98;;;;;;;6.80;63.07;100294.50;10437743;28;20143;-80
2024/03/20 00:38:53;;;;;;;2.72;1.48;;;;;;;6.79;63.16;100294.59;10422124;28;20057;-81
2024/03/20 00:43:54;;;;;;;3.03;1.40;;;;;;;6.72;63.49;100299.16;10429622;28;20084;-80
2024/03/20 00:48:55;;;;;;;2.92;1.83;;;;;;;6.73;63.13;100297.41;10428055;28;20057;-80
2024/03/20 00:53:56;;;;;;;3.17;1.75;;;;;;;6.69;63.29;100291.50;10437135;28;20428;-80
2024/03/20 00:58:57;;;;;;;2.60;1.42;;;;;;;6.64;63.21;100290.81;10438162;28;20060;-80
2024/03/20 01:03:58;;;;;;;4.15;1.52;;;;;;;6.61;63.21;100288.34;10437694;28;20056;-81
2024/03/20 01:08:59;;;;;;;4.28;2.33;;;;;;;6.60;63.45;100280.59;10426910;28;20114;-80
2024/03/20 01:14:00;;;;;;;2.85;1.50;;;;;;;6.53;63.58;100274.75;10437947;28;20052;-80
2024/03/20 01:19:03;;;;;;;2.95;1.60;;;;;;;6.56;63.55;100269.47;10403201;28;20049;-81
2024/03/20 01:24:04;;;;;;;3.35;1.80;;;;;;;6.58;63.78;100272.00;10410350;28;20167;-80
2024/03/20 01:29:05;;;;;;;4.45;1.70;;;;;;;6.63;63.55;100275.28;10421374;28;20058;-80
2024/03/20 01:34:06;;;;;;;3.70;1.75;;;;;;;6.64;63.62;100267.41;10443316;28;20049;-81
2024/03/20 01:39:07;;;;;;;8.10;2.17;;;;;;;6.72;63.33;100265.38;10404780;28;20045;-81
2024/03/20 01:44:11;;;;;;;5.97;1.85;;;;;;;6.76;63.47;100255.69;10452389;28;20464;-80
2024/03/20 01:49:12;;;;;;;4.82;1.85;;;;;;;6.74;63.38;100257.50;10427743;28;20044;-80
2024/03/20 01:54:14;;;;;;;2.83;1.73;;;;;;;6.73;63.63;100255.81;10452103;28;20080;-81
2024/03/20 01:59:15;;;;;;;3.88;1.85;;;;;;;6.79;63.46;100260.78;10424846;28;20481;-80
2024/03/20 02:04:16;;;;;;;5.28;2.15;;;;;;;6.86;63.25;100257.03;10434755;28;20048;-80
2024/03/20 02:09:17;;;;;;;4.30;2.35;;;;;;;6.83;63.23;100258.03;10418685;28;20135;-80
2024/03/20 02:14:18;;;;;;;3.53;2.03;;;;;;;6.87;63.14;100256.13;10451031;28;20476;-80
2024/03/20 02:19:19;;;;;;;6.50;2.50;;;;;;;6.82;63.16;100253.72;10418321;28;20132;-81
2024/03/20 02:24:20;;;;;;;3.03;1.67;;;;;;;6.82;63.12;100260.66;10433821;28;20060;-81
2024/03/20 02:29:21;;;;;;;3.42;1.70;;;;;;;6.81;63.10;100256.38;10432925;28;20052;-81
2024/03/20 02:34:22;;;;;;;3.13;1.80;;;;;;;6.80;63.32;100257.25;10401433;28;20152;-80
2024/03/20 02:39:23;;;;;;;3.03;1.90;;;;;;;6.74;63.10;100257.50;10433907;28;20052;-80
2024/03/20 02:44:24;;;;;;;4.10;2.00;;;;;;;6.67;63.07;100256.91;10449003;28;20057;-81
2024/03/20 02:49:25;;;;;;;3.38;1.70;;;;;;;6.60;63.24;100259.78;10438257;28;20080;-80
2024/03/20 02:54:26;;;;;;;9.35;2.10;;;;;;;6.53;63.14;100253.97;10400879;28;20454;-80
2024/03/20 02:59:27;;;;;;;4.40;1.63;;;;;;;6.45;63.16;100250.00;10434431;28;20060;-80
2024/03/20 03:04:29;;;;;;;5.57;2.20;;;;;;;6.29;63.60;100250.56;10421900;28;20067;-81
2024/03/20 03:09:29;;;;;;;5.32;1.70;;;;;;;6.28;63.77;100250.63;10414375;28;20135;-81
2024/03/20 03:14:31;;;;;;;3.65;1.63;;;;;;;6.25;63.75;100248.97;10424394;28;20135;-80
2024/03/20 03:19:32;;;;;;;2.47;1.63;;;;;;;6.27;63.81;100247.19;10440339;28;20569;-80
2024/03/20 03:24:33;;;;;;;3.85;1.80;;;;;;;6.23;63.65;100245.56;10416579;28;20140;-80
2024/03/20 03:29:34;;;;;;;3.03;1.52;;;;;;;6.21;64.04;100252.56;10419840;28;20047;-80
2024/03/20 03:34:35;;;;;;;3.65;1.80;;;;;;;6.13;63.64;100249.41;10415078;28;20048;-80
2024/03/20 03:39:36;;;;;;;2.88;1.60;;;;;;;6.08;63.93;100256.50;10430896;28;20408;-81
2024/03/20 03:44:37;;;;;;;4.43;2.30;;;;;;;5.99;63.90;100256.84;10398906;28;20048;-81
2024/03/20 03:49:39;;;;;;;4.80;2.60;;;;;;;5.92;63.91;100250.16;10428672;28;20148;-81
2024/03/20 03:54:40;;;;;;;5.18;2.08;;;;;;;5.80;63.98;100254.97;10398526;28;20107;-80
2024/03/20 03:59:41;;;;;;;3.58;1.88;;;;;;;5.76;64.22;100255.97;10417525;28;20175;-80
2024/03/20 04:04:43;;;;;;;4.60;1.73;;;;;;;5.70;64.21;100262.22;10398835;28;20584;-80
2024/03/20 04:09:44;;;;;;;2.50;1.50;;;;;;;5.67;64.32;100269.25;10444677;28;20052;-81
2024/03/20 04:14:45;;;;;;;4.35;2.03;;;;;;;5.63;64.24;100271.13;10421978;28;20147;-81
2024/03/20 04:19:46;;;;;;;4.03;1.65;;;;;;;5.62;64.46;100271.16;10430489;28;20184;-80
2024/03/20 04:24:47;;;;;;;11.65;2.95;;;;;;;5.59;64.44;100282.50;10435957;28;20524;-80
2024/03/20 04:29:48;;;;;;;15.05;2.50;;;;;;;5.47;64.71;100277.72;10411286;28;20052;-80
2024/03/20 04:34:49;;;;;;;10.80;2.97;;;;;;;5.39;64.65;100282.31;10462245;28;20056;-84
2024/03/20 04:39:50;;;;;;;3.90;1.85;;;;;;;5.34;65.27;100276.44;10420988;28;20063;-84
2024/03/20 04:44:51;;;;;;;12.30;2.40;;;;;;;5.23;64.94;100279.38;10428182;28;20068;-83
2024/03/20 04:49:52;;;;;;;8.80;2.60;;;;;;;5.17;65.07;100281.31;10396795;28;20103;-84
2024/03/20 04:54:55;;;;;;;74.65;4.53;;;;;;;5.20;65.15;100283.81;10437033;28;20510;-83
2024/03/20 04:59:56;;;;;;;59.58;4.65;;;;;;;5.19;65.23;100285.56;10426128;28;20698;-83
2024/03/20 05:04:57;;;;;;;11.13;2.22;;;;;;;5.20;65.04;100283.81;10411834;28;21101;-84
2024/03/20 05:09:58;;;;;;;19.65;2.10;;;;;;;5.22;64.86;100280.28;10436516;28;20048;-81
2024/03/20 05:15:00;;;;;;;76.43;3.80;;;;;;;5.10;64.83;100279.81;10418349;28;20075;-80
2024/03/20 05:20:04;;;;;;;28.63;2.47;;;;;;;4.89;65.11;100289.13;10402032;28;20135;-80
2024/03/20 05:25:06;;;;;;;41.92;2.60;;;;;;;4.96;65.34;100290.63;10427420;28;20055;-81
2024/03/20 05:30:08;;;;;;;3.38;1.92;;;;;;;5.03;65.38;100292.13;10403952;28;20056;-81
2024/03/20 05:35:09;;;;;;;27.98;2.63;;;;;;;5.11;65.24;100284.09;10444458;28;20084;-82
2024/03/20 05:40:10;;;;;;;132.65;4.72;;;;;;;5.18;65.01;100288.19;10436649;28;20057;-81
2024/03/20 05:45:11;;;;;;;41.85;3.30;;;;;;;5.22;64.92;100290.66;10436147;28;20140;-82
2024/03/20 05:50:13;;;;;;;114.47;5.30;;;;;;;5.25;64.88;100294.88;10449661;28;20190;-82
2024/03/20 05:55:15;;;;;;;47.60;2.15;;;;;;;5.27;64.99;100293.06;10418125;28;20083;-81
2024/03/20 06:00:24;;;;;;;59.92;4.13;;;;;;;5.35;64.75;100298.88;10442942;28;20053;-81
2024/03/20 06:05:26;;;;;;;11.32;2.60;;;;;;;5.40;64.95;100292.63;10434342;28;20089;-81
2024/03/20 06:10:27;;;;;;;12.20;2.22;;;;;;;5.56;64.71;100287.78;10418016;28;20148;-81
2024/03/20 06:15:28;;;;;;;30.77;3.08;;;;;;;5.73;64.53;100293.25;10415885;28;20425;-81
2024/03/20 06:20:30;;;;;;;4.88;2.13;;;;;;;5.87;64.19;100301.41;10416954;28;20053;-81
2024/03/20 06:25:31;;;;;;;5.43;2.20;;;;;;;5.92;64.27;100299.50;10432258;28;20103;-82
2024/03/20 06:30:32;;;;;;;14.35;2.95;;;;;;;6.01;64.30;100306.13;10416746;28;20057;-82
2024/03/20 06:35:33;;;;;;;5.22;2.00;;;;;;;6.22;64.07;100303.63;10400492;28;20485;-82
2024/03/20 06:40:34;;;;;;;4.53;2.08;;;;;;;6.48;63.90;100307.03;10416704;28;20132;-82
2024/03/20 06:45:40;;;;;;;3.70;1.90;;;;;;;6.69;63.57;100298.44;10416366;28;20128;-81
2024/03/20 06:50:48;;;;;;;4.05;2.45;;;;;;;6.77;63.19;100314.59;10432558;28;20517;-82
2024/03/20 06:55:53;;;;;;;4.15;2.30;;;;;;;6.89;63.05;100319.31;10448480;28;20454;-81
2024/03/20 07:00:54;;;;;;;3.80;1.92;;;;;;;7.01;63.04;100324.03;10430439;28;20139;-81
2024/03/20 07:05:57;;;;;;;7.03;1.98;;;;;;;7.31;63.01;100325.41;10416163;28;20092;-81
2024/03/20 07:10:58;;;;;;;4.38;2.38;;;;;;;7.57;62.46;100325.22;10412729;28;20135;-81
2024/03/20 07:15:59;;;;;;;3.22;1.95;;;;;;;7.70;62.45;100326.41;10414869;28;20143;-81
2024/03/20 07:21:00;;;;;;;4.80;2.50;;;;;;;7.79;62.10;100322.56;10431889;28;20060;-81
2024/03/20 07:26:01;;;;;;;6.20;2.97;;;;;;;8.01;61.98;100324.22;10414113;28;20053;-81
2024/03/20 07:31:02;;;;;;;4.78;2.47;;;;;;;8.19;62.14;100316.53;10420575;28;20152;-81
2024/03/20 07:36:04;;;;;;;5.75;2.80;;;;;;;8.26;62.05;100320.56;10444088;28;20083;-81
2024/03/20 07:41:06;;;;;;;3.03;1.85;;;;;;;8.48;62.18;100321.28;10414522;28;20521;-82
2024/03/20 07:46:08;;;;;;;5.28;2.47;;;;;;;8.67;62.02;100327.34;10433807;28;20060;-82
2024/03/20 07:51:09;;;;;;;3.83;2.15;;;;;;;9.05;61.78;100333.41;10422092;28;21238;-82
2024/03/20 07:56:11;;;;;;;5.22;2.75;;;;;;;9.29;61.22;100332.25;10417138;28;20088;-81
2024/03/20 08:01:12;;;;;;;6.47;3.60;;;;;;;9.74;60.58;100330.03;10421500;28;20061;-81
2024/03/20 08:06:13;;;;;;;8.52;4.55;;;;;;;10.12;59.65;100328.94;10411759;28;20061;-81
2024/03/20 08:11:14;;;;;;;7.72;4.53;;;;;;;10.45;59.02;100329.78;10397367;28;20057;-81
2024/03/20 08:16:15;;;;;;;8.73;3.67;;;;;;;10.85;58.55;100336.34;10444700;28;20063;-82
2024/03/20 08:21:17;;;;;;;10.57;3.80;;;;;;;10.97;58.28;100343.50;10427337;28;20061;-81
2024/03/20 08:26:18;;;;;;;6.93;3.63;;;;;;;11.17;57.98;100334.59;10454448;28;20128;-81
2024/03/20 08:31:19;;;;;;;6.75;3.45;;;;;;;11.50;57.47;100330.06;10413783;28;20564;-83
2024/03/20 08:36:20;;;;;;;8.05;4.18;;;;;;;11.96;56.82;100331.72;10413055;28;20477;-82
2024/03/20 08:41:21;;;;;;;7.82;3.75;;;;;;;12.03;56.01;100329.56;10398029;28;20062;-81
2024/03/20 08:46:24;;;;;;;10.82;4.72;;;;;;;11.97;55.98;100322.06;10434319;28;20091;-81
2024/03/20 08:51:25;;;;;;;8.38;3.83;;;;;;;11.96;55.78;100325.63;10419042;28;20828;-82
2024/03/20 08:56:26;;;;;;;8.63;4.28;;;;;;;12.17;55.85;100318.28;10419733;28;20083;-82
2024/03/20 09:01:27;;;;;;;7.78;4.60;;;;;;;12.63;54.75;100309.31;10434748;28;20064;-82
2024/03/20 09:06:29;;;;;;;8.45;3.90;;;;;;;13.05;54.07;100308.41;10401957;28;20045;-82
2024/03/20 09:11:30;;;;;;;7.85;4.30;;;;;;;12.96;54.12;100323.75;10452691;28;20048;-82
2024/03/20 09:16:31;;;;;;;9.65;4.28;;;;;;;13.39;53.70;100308.72;10436496;28;20053;-82
2024/03/20 09:21:38;;;;;;;8.10;4.03;;;;;;;13.42;53.64;100303.31;10418108;28;20486;-82
2024/03/20 09:26:39;;;;;;;16.58;5.57;;;;;;;13.29;53.33;100301.56;10418754;28;20140;-82
2024/03/20 09:31:40;;;;;;;8.68;3.40;;;;;;;13.50;52.90;100284.41;10435959;28;20079;-81
2024/03/20 09:36:41;;;;;;;10.13;4.60;;;;;;;13.87;52.14;100283.63;10402926;28;20131;-82
2024/03/20 09:41:42;;;;;;;8.15;3.85;;;;;;;14.08;52.02;100282.19;10434440;28;20565;-82
2024/03/20 09:46:43;;;;;;;8.90;3.75;;;;;;;14.37;51.59;100275.72;10418671;28;20080;-81
2024/03/20 09:51:45;;;;;;;8.57;3.72;;;;;;;14.67;51.15;100278.03;10402717;28;20600;-82
2024/03/20 09:56:47;;;;;;;8.25;4.35;;;;;;;14.98;50.36;100269.59;10421169;28;20160;-81
2024/03/20 10:01:48;;;;;;;7.68;4.07;;;;;;;14.97;50.65;100261.81;10417404;28;20106;-82
2024/03/20 10:06:50;;;;;;;8.02;4.60;;;;;;;15.06;49.74;100259.34;10442318;28;20064;-82
2024/03/20 10:11:53;;;;;;;9.55;4.03;;;;;;;15.05;50.10;100262.09;10441373;28;20490;-82
2024/03/20 10:17:09;;;;;;;7.70;3.53;;;;;;;15.23;49.25;100253.69;10449371;28;20048;-82
2024/03/20 10:22:11;;;;;;;11.15;4.75;;;;;;;15.53;49.63;100244.50;10408553;28;20631;-82
2024/03/20 10:27:13;;;;;;;9.85;4.15;;;;;;;15.49;49.10;100238.59;10416938;28;20041;-82
2024/03/20 10:32:15;;;;;;;7.80;4.10;;;;;;;15.50;49.20;100247.34;10447883;28;20063;-82
2024/03/20 10:37:17;;;;;;;8.98;3.85;;;;;;;15.87;49.23;100228.66;10431341;28;20055;-83
2024/03/20 10:42:20;;;;;;;8.85;4.20;;;;;;;15.89;48.53;100234.66;10433473;28;20580;-82
2024/03/20 10:47:22;;;;;;;7.50;3.45;;;;;;;16.10;48.37;100238.25;10438648;28;20144;-83
2024/03/20 10:52:24;;;;;;;6.32;3.45;;;;;;;16.31;47.95;100226.97;10432727;28;20171;-82
2024/03/20 10:57:27;;;;;;;5.70;3.45;;;;;;;16.41;47.71;100227.91;10464343;28;20418;-82
2024/03/20 11:02:29;;;;;;;10.65;3.80;;;;;;;16.38;48.11;100226.38;10414079;28;20060;-82
2024/03/20 11:07:30;;;;;;;8.98;3.60;;;;;;;16.51;47.55;100219.19;10421973;28;20152;-83
2024/03/20 11:12:36;;;;;;;8.10;3.40;;;;;;;16.54;47.01;100220.75;10433449;28;20059;-82
2024/03/20 11:17:38;;;;;;;6.07;2.80;;;;;;;16.56;47.27;100221.47;10436231;28;20122;-82
2024/03/20 11:22:39;;;;;;;6.78;3.15;;;;;;;16.71;47.31;100222.88;10399391;28;20085;-82
2024/03/20 11:27:40;;;;;;;9.00;3.03;;;;;;;17.07;47.09;100225.19;10413073;28;20135;-82
2024/03/20 11:32:44;;;;;;;4.50;2.75;;;;;;;17.25;46.84;100210.44;10431750;28;20092;-83
2024/03/20 11:37:47;;;;;;;5.50;2.80;;;;;;;17.41;46.20;100212.69;10399436;28;20135;-82
2024/03/20 11:42:50;;;;;;;4.03;2.45;;;;;;;17.48;45.95;100201.47;10414659;28;20156;-83
2024/03/20 11:47:52;;;;;;;3.92;2.25;;;;;;;17.80;45.71;100193.44;10414361;28;20041;-82
2024/03/20 11:52:53;;;;;;;4.15;2.00;;;;;;;17.80;45.03;100189.00;10437020;28;20107;-83
2024/03/20 11:57:57;;;;;;;5.05;2.55;;;;;;;17.98;45.31;100185.72;10397266;28;20045;-83
2024/03/20 12:02:59;;;;;;;6.40;2.70;;;;;;;17.84;44.59;100187.78;10421149;28;20525;-83
2024/03/20 12:08:00;;;;;;;5.30;2.20;;;;;;;17.90;44.61;100180.25;10428443;28;20306;-82
2024/03/20 12:13:01;;;;;;;3.72;1.80;;;;;;;18.35;44.43;100181.59;10429351;28;20123;-83
2024/03/20 12:18:03;;;;;;;3.08;2.00;;;;;;;18.32;43.58;100177.41;10445782;28;20192;-83
2024/03/20 12:23:07;;;;;;;3.83;1.80;;;;;;;18.26;42.90;100172.66;10436308;28;20139;-83
2024/03/20 12:28:09;;;;;;;2.83;1.60;;;;;;;18.31;42.23;100174.91;10427770;28;20135;-83
2024/03/20 12:33:10;;;;;;;4.22;2.00;;;;;;;18.52;41.69;100165.06;10397048;28;20095;-83
2024/03/20 12:38:11;;;;;;;3.05;1.73;;;;;;;18.69;41.57;100160.91;10370464;28;20136;-83
2024/03/20 12:43:13;;;;;;;3.03;1.60;;;;;;;18.80;41.58;100163.41;10388502;28;20060;-83
2024/03/20 12:48:14;;;;;;;2.65;1.70;;;;;;;18.91;40.84;100150.88;10385142;28;20049;-83
2024/03/20 12:53:17;;;;;;;4.60;1.50;;;;;;;19.05;40.42;100150.50;10404305;28;20482;-83
2024/03/20 12:58:18;;;;;;;4.25;1.50;;;;;;;19.14;40.08;100147.00;10371090;28;20128;-83
2024/03/20 13:03:20;;;;;;;1.98;1.27;;;;;;;19.32;39.74;100131.19;10387287;28;20425;-83
2024/03/20 13:08:22;;;;;;;3.05;1.48;;;;;;;19.17;39.48;100129.97;10353110;28;20053;-83
2024/03/20 13:13:27;;;;;;;5.07;1.50;;;;;;;19.38;39.17;100131.47;10385722;28;20080;-83
2024/03/20 13:18:33;;;;;;;4.70;1.27;;;;;;;19.54;38.72;100125.59;10356312;28;20089;-83
2024/03/20 13:23:34;;;;;;;3.65;1.30;;;;;;;19.41;39.13;100115.28;10372471;28;20080;-83
2024/03/20 13:28:37;;;;;;;2.70;1.42;;;;;;;19.54;38.88;100109.66;10386368;28;20084;-83
2024/03/20 13:33:39;;;;;;;2.50;1.30;;;;;;;19.34;38.18;100108.84;10397176;28;20156;-83
2024/03/20 13:38:43;;;;;;;2.83;1.30;;;;;;;19.30;38.80;100096.03;10443568;28;20061;-83
2024/03/20 13:49:04;;;;;;;2.57;1.30;;;;;;;19.34;38.05;100087.66;10422937;28;20391;-80
2024/03/20 13:54:08;;;;;;;3.40;1.60;;;;;;;19.58;38.52;100094.28;10401032;28;20081;-80
2024/03/20 13:59:10;;;;;;;3.70;1.75;;;;;;;19.51;39.08;100088.72;10433343;28;20193;-81
2024/03/20 14:04:11;;;;;;;5.50;1.48;;;;;;;19.52;38.79;100084.25;10415215;28;20057;-81
2024/03/20 14:09:13;;;;;;;3.45;1.52;;;;;;;19.43;38.88;100085.94;10401898;28;20088;-81
2024/03/20 14:14:14;;;;;;;4.50;1.75;;;;;;;19.15;39.47;100071.78;10403439;28;20088;-81
2024/03/20 14:19:15;;;;;;;2.22;1.40;;;;;;;19.18;38.91;100062.69;10400252;28;20139;-81
2024/03/20 14:24:16;;;;;;;1.80;1.13;;;;;;;19.26;39.06;100066.31;10401351;28;20057;-81
2024/03/20 14:29:17;;;;;;;2.22;1.27;;;;;;;19.33;39.19;100055.97;10423682;28;20049;-81
2024/03/20 14:34:18;;;;;;;3.00;1.65;;;;;;;19.46;38.94;100065.28;10400789;28;20061;-81
2024/03/20 14:39:20;;;;;;;2.90;1.52;;;;;;;19.41;37.83;100069.34;10400368;28;20122;-81
2024/03/20 14:44:21;;;;;;;3.85;1.60;;;;;;;19.25;38.67;100061.16;10398920;28;20135;-81
2024/03/20 14:49:26;;;;;;;4.22;2.15;;;;;;;19.18;38.64;100060.88;10431450;28;20060;-81
2024/03/20 14:54:28;;;;;;;2.70;1.50;;;;;;;19.20;38.71;100053.63;10423247;28;20420;-81
2024/03/20 14:59:29;;;;;;;3.92;1.55;;;;;;;19.28;38.96;100051.09;10421990;28;20053;-81
2024/03/20 15:04:31;;;;;;;2.45;1.40;;;;;;;19.50;38.77;100049.06;10413768;28;20471;-81
2024/03/20 15:09:32;;;;;;;3.28;1.67;;;;;;;19.22;38.95;100051.66;10439903;28;20167;-81
2024/03/20 15:14:33;;;;;;;5.47;1.80;;;;;;;19.12;38.86;100055.31;10430817;28;20052;-81
2024/03/20 15:19:35;;;;;;;6.72;1.80;;;;;;;18.99;38.95;100042.31;10430931;28;20136;-81
2024/03/20 15:24:36;;;;;;;3.28;1.23;;;;;;;19.11;39.50;100035.94;10415937;28;20520;-81
2024/03/20 15:29:37;;;;;;;2.60;1.65;;;;;;;19.07;39.52;100036.38;10414073;28;20049;-81
2024/03/20 15:34:38;;;;;;;3.42;1.63;;;;;;;18.86;40.02;100039.16;10430241;28;20056;-81
2024/03/20 15:39:43;;;;;;;2.72;1.42;;;;;;;18.67;40.30;100039.16;10414043;28;20076;-81
2024/03/20 15:44:44;;;;;;;4.70;1.75;;;;;;;18.47;40.43;100046.28;10414454;28;20048;-81
2024/03/20 15:49:46;;;;;;;2.85;1.30;;;;;;;18.38;40.15;100041.00;10427550;28;20126;-81
2024/03/20 15:54:47;;;;;;;2.60;1.38;;;;;;;18.32;40.33;100044.19;10431226;28;20056;-81
2024/03/20 15:59:49;;;;;;;3.20;1.52;;;;;;;18.27;40.67;100043.75;10427049;28;20071;-81
2024/03/20 16:04:50;;;;;;;2.25;1.40;;;;;;;18.31;40.91;100037.22;10412731;28;20056;-81
2024/03/20 16:09:51;;;;;;;2.45;1.48;;;;;;;18.29;40.84;100044.47;10410794;28;20084;-81
2024/03/20 16:14:53;;;;;;;3.13;1.38;;;;;;;18.29;41.34;100050.59;10430188;28;20053;-81
2024/03/20 16:19:54;;;;;;;2.00;1.30;;;;;;;18.26;40.95;100042.91;10444631;28;20052;-81
2024/03/20 16:24:55;;;;;;;3.78;1.40;;;;;;;18.16;40.77;100047.31;10429276;28;20063;-81
2024/03/20 16:29:56;;;;;;;4.03;1.70;;;;;;;18.16;40.94;100049.13;10394248;28;20609;-81
2024/03/20 16:34:57;;;;;;;1.98;1.25;;;;;;;17.99;41.43;100049.81;10395598;28;21033;-81
2024/03/20 16:39:59;;;;;;;2.30;1.10;;;;;;;17.82;41.83;100049.50;10411922;28;20053;-81
2024/03/20 16:45:01;;;;;;;1.83;1.10;;;;;;;17.75;41.58;100056.28;10412662;28;20086;-81
2024/03/20 16:50:04;;;;;;;4.63;1.67;;;;;;;17.74;41.07;100059.91;10417729;28;20640;-81
2024/03/20 16:55:06;;;;;;;2.33;1.40;;;;;;;17.62;41.54;100060.13;10427382;28;20604;-81
2024/03/20 17:00:09;;;;;;;4.38;1.40;;;;;;;17.44;41.97;100062.56;10429411;28;20057;-81
2024/03/20 17:05:13;;;;;;;5.57;1.50;;;;;;;17.37;41.75;100066.69;10403123;28;20064;-81
2024/03/20 17:10:14;;;;;;;2.05;1.20;;;;;;;17.27;41.39;100071.06;10399781;28;20057;-81
2024/03/20 17:15:15;;;;;;;2.55;1.60;;;;;;;17.16;41.47;100073.75;10436187;28;20577;-81
2024/03/20 17:20:16;;;;;;;3.85;1.58;;;;;;;16.97;42.22;100078.94;10402701;28;20049;-81
2024/03/20 17:25:17;;;;;;;4.85;1.50;;;;;;;16.70;43.25;100084.72;10427296;28;20497;-81
2024/03/20 17:30:19;;;;;;;3.63;1.90;;;;;;;16.54;43.56;100083.44;10419105;28;20064;-81
2024/03/20 17:35:20;;;;;;;4.25;1.60;;;;;;;16.37;43.71;100079.50;10432847;28;20072;-82
2024/03/20 17:40:21;;;;;;;2.97;1.63;;;;;;;16.28;43.92;100077.63;10434241;28;20045;-81
2024/03/20 17:45:24;;;;;;;4.43;1.50;;;;;;;15.82;44.57;100091.00;10417081;28;20053;-81
2024/03/20 17:50:27;;;;;;;4.40;1.73;;;;;;;15.64;45.59;100095.09;10425671;28;20056;-81
2024/03/20 17:55:28;;;;;;;5.70;1.98;;;;;;;15.53;45.43;100081.88;10424688;28;20064;-81
2024/03/20 18:00:30;;;;;;;1.50;1.10;;;;;;;15.38;46.15;100081.28;10420377;28;20103;-81
2024/03/20 18:05:31;;;;;;;2.20;1.25;;;;;;;15.17;45.97;100085.53;10410381;28;20071;-81
2024/03/20 18:10:32;;;;;;;5.78;1.40;;;;;;;15.06;46.00;100089.94;10450998;28;20063;-81
2024/03/20 18:15:33;;;;;;;2.83;1.30;;;;;;;14.95;46.28;100101.28;10416381;28;20130;-81
2024/03/20 18:20:38;;;;;;;1.95;1.48;;;;;;;14.85;46.03;100100.31;10432524;28;20052;-81
2024/03/20 18:25:40;;;;;;;1.88;1.20;;;;;;;14.80;46.43;100099.78;10440620;28;20103;-81
2024/03/20 18:30:45;;;;;;;2.47;1.40;;;;;;;14.71;47.06;100097.00;10416450;28;20056;-81
2024/03/20 18:35:46;;;;;;;2.85;1.60;;;;;;;14.55;47.58;100092.03;10414929;28;20151;-81
2024/03/20 18:40:47;;;;;;;3.28;1.98;;;;;;;14.40;48.41;100096.59;10400167;28;20053;-81
2024/03/20 18:45:49;;;;;;;3.10;1.85;;;;;;;14.32;48.77;100100.72;10432869;28;20048;-81
2024/03/20 18:50:50;;;;;;;5.80;2.20;;;;;;;14.25;48.63;100097.69;10439029;28;20421;-82
2024/03/20 18:55:55;;;;;;;4.40;2.05;;;;;;;14.18;48.58;100100.88;10431396;28;20103;-82
2024/03/20 19:00:56;;;;;;;3.95;1.70;;;;;;;13.97;48.85;100099.78;10414058;28;20061;-81
2024/03/20 19:05:57;;;;;;;3.65;2.03;;;;;;;13.88;48.84;100105.72;10415860;28;20052;-79
2024/03/20 19:10:59;;;;;;;2.35;1.50;;;;;;;13.74;48.91;100104.88;10438232;28;20395;-80
2024/03/20 19:16:04;;;;;;;2.90;1.70;;;;;;;13.55;50.08;100107.13;10437846;28;20063;-79
2024/03/20 19:21:05;;;;;;;5.07;2.53;;;;;;;13.34;50.56;100107.69;10455081;28;20417;-79
2024/03/20 19:26:09;;;;;;;4.40;2.30;;;;;;;13.28;50.92;100114.22;10455719;28;20501;-79
2024/03/20 19:31:10;;;;;;;5.72;2.45;;;;;;;13.06;51.21;100121.88;10435915;28;20568;-79
2024/03/20 19:36:11;;;;;;;5.18;2.65;;;;;;;12.98;51.87;100124.97;10397207;28;20151;-79
2024/03/20 19:41:13;;;;;;;5.05;1.80;;;;;;;12.94;52.06;100122.69;10413745;28;20049;-79
2024/03/20 19:46:15;;;;;;;6.75;3.03;;;;;;;12.74;52.46;100134.47;10421687;28;20049;-79
2024/03/20 19:51:16;;;;;;;6.47;2.50;;;;;;;12.54;52.97;100129.69;10413270;28;20091;-79
2024/03/20 19:56:17;;;;;;;5.28;2.50;;;;;;;12.41;53.52;100130.59;10394869;28;20053;-79
2024/03/20 20:01:19;;;;;;;4.40;1.73;;;;;;;12.24;53.89;100136.00;10412753;28;20060;-79
2024/03/20 20:06:21;;;;;;;3.00;1.60;;;;;;;12.18;54.22;100141.66;10396235;28;20092;-79
2024/03/20 20:11:22;;;;;;;4.10;1.88;;;;;;;12.09;54.01;100153.53;10396372;28;20045;-79
2024/03/20 20:16:23;;;;;;;4.35;1.95;;;;;;;11.81;54.24;100164.06;10412519;28;20071;-79
2024/03/20 20:21:24;;;;;;;4.25;2.00;;;;;;;11.80;54.78;100167.63;10413309;28;20084;-79
2024/03/20 20:26:26;;;;;;;6.47;1.80;;;;;;;11.76;55.09;100166.97;10427943;28;20691;-79
2024/03/20 20:31:28;;;;;;;3.60;1.92;;;;;;;11.68;55.48;100176.22;10411259;28;20188;-79
2024/03/20 20:36:29;;;;;;;3.58;2.05;;;;;;;11.61;55.29;100175.75;10427788;28;20537;-79
2024/03/20 20:41:30;;;;;;;4.18;1.98;;;;;;;11.57;55.63;100179.50;10411378;28;20049;-79
2024/03/20 20:46:32;;;;;;;2.92;1.48;;;;;;;11.61;55.67;100172.28;10434634;28;20057;-79
2024/03/20 20:51:34;;;;;;;4.25;1.83;;;;;;;11.57;55.54;100176.00;10425928;28;20167;-78
2024/03/20 20:56:35;;;;;;;3.17;1.60;;;;;;;11.56;55.85;100163.88;10418665;28;20076;-79
2024/03/20 21:01:36;;;;;;;4.72;1.58;;;;;;;11.45;56.02;100158.41;10419037;28;20080;-79
2024/03/20 21:19:51;;;;;;;2.90;1.63;;;;;;;11.34;56.17;100166.09;10420781;28;20091;-79
2024/03/20 21:22:43;;;;;;;3.28;1.50;;;;;;;11.06;57.12;100183.38;10450380;28;20624;-79
2024/03/20 21:27:45;;;;;;;4.93;2.63;;;;;;;11.02;57.10;100189.69;10402080;28;20922;-79
2024/03/20 21:32:46;;;;;;;5.85;2.47;;;;;;;10.96;57.08;100184.81;10418527;28;20076;-79
2024/03/20 21:37:48;;;;;;;4.68;2.30;;;;;;;10.84;57.17;100190.75;10441138;28;20056;-79
2024/03/20 21:42:52;;;;;;;4.90;2.10;;;;;;;10.74;57.47;100194.81;10402598;28;20253;-79
2024/03/20 21:47:55;;;;;;;5.10;2.20;;;;;;;10.66;57.53;100191.78;10418491;28;20084;-79
2024/03/20 21:52:56;;;;;;;3.42;1.92;;;;;;;10.59;57.77;100195.66;10402646;28;20156;-79
2024/03/20 21:57:57;;;;;;;6.18;2.00;;;;;;;10.57;57.79;100202.75;10416901;28;20048;-79
2024/03/20 22:02:58;;;;;;;5.35;2.08;;;;;;;10.52;57.96;100210.84;10401004;28;20107;-79
2024/03/20 22:07:59;;;;;;;4.15;1.90;;;;;;;10.38;58.08;100223.84;10449318;28;20044;-79
2024/03/20 22:13:01;;;;;;;6.63;2.08;;;;;;;10.32;58.27;100221.56;10405899;28;20056;-79
2024/03/20 22:18:03;;;;;;;3.60;1.80;;;;;;;10.36;58.24;100217.00;10417100;28;20084;-79
2024/03/20 22:23:06;;;;;;;3.03;1.70;;;;;;;10.35;58.37;100210.09;10400409;28;20084;-79
2024/03/20 22:28:07;;;;;;;9.18;2.97;;;;;;;10.41;58.18;100218.44;10440271;28;20076;-79
2024/03/20 22:33:09;;;;;;;4.22;1.70;;;;;;;10.47;58.27;100212.03;10431897;28;20564;-79
2024/03/20 22:38:10;;;;;;;4.15;1.80;;;;;;;10.42;58.01;100207.03;10457264;28;20154;-79
2024/03/20 22:43:12;;;;;;;5.38;1.90;;;;;;;10.18;58.42;100200.53;10408962;28;20080;-78
2024/03/20 22:48:15;;;;;;;3.88;1.98;;;;;;;10.17;58.72;100203.25;10396953;28;20146;-79
2024/03/20 22:53:18;;;;;;;7.05;2.50;;;;;;;10.16;58.87;100209.38;10415490;28;20793;-79
2024/03/20 22:58:19;;;;;;;7.40;3.30;;;;;;;10.07;58.91;100209.88;10432025;28;20060;-79
2024/03/20 23:03:20;;;;;;;4.70;2.08;;;;;;;9.91;58.95;100198.56;10397779;28;20065;-79
2024/03/20 23:08:21;;;;;;;5.75;3.03;;;;;;;9.82;59.38;100202.50;10431782;28;20135;-79
2024/03/20 23:13:23;;;;;;;3.97;2.30;;;;;;;9.72;59.36;100200.44;10431514;28;20056;-79
2024/03/20 23:18:24;;;;;;;9.00;2.38;;;;;;;9.64;59.55;100196.44;10445942;28;20211;-79
2024/03/20 23:23:25;;;;;;;7.07;2.28;;;;;;;9.55;59.75;100194.28;10396682;28;20483;-79
2024/03/20 23:28:28;;;;;;;6.18;3.15;;;;;;;9.45;59.79;100193.06;10413179;28;20076;-79